createdAt,value
2018-03-26T18:31:51.896Z,99145.75
2018-03-26T18:34:20.469Z,99150.00
2018-03-26T18:36:49.805Z,99164.25
2018-03-26T18:39:18.428Z,99159.28
2018-03-26T18:41:47.033Z,99161.70
2018-03-26T18:44:16.380Z,99161.05
2018-03-26T18:46:45.001Z,99156.88
2018-03-26T18:49:13.568Z,99164.55
2018-03-26T18:51:42.145Z,99166.69
2018-03-26T18:54:11.589Z,99162.36
2018-03-26T18:56:40.957Z,99162.05
2018-03-26T18:59:09.533Z,99157.58
2018-03-26T19:01:38.309Z,99156.76
2018-03-26T19:04:06.889Z,99150.96
2018-03-26T19:06:35.458Z,99150.91
2018-03-26T19:09:04.313Z,99161.64
2018-03-26T19:11:33.717Z,99159.23
2018-03-26T19:14:02.286Z,99161.19
2018-03-26T19:16:30.910Z,99166.83
2018-03-26T19:18:59.494Z,99172.69
2018-03-26T19:21:28.072Z,99169.15
2018-03-26T19:23:56.731Z,99167.05
2018-03-26T19:26:25.297Z,99162.35
2018-03-26T19:28:53.869Z,99163.58
2018-03-26T19:31:23.470Z,99163.77
2018-03-26T19:33:52.158Z,99171.16
2018-03-26T19:36:20.768Z,99173.46
2018-03-26T19:38:49.400Z,99181.78
2018-03-26T19:41:18.046Z,99172.41
2018-03-26T19:43:47.440Z,99177.13
2018-03-26T19:46:16.210Z,99164.25
2018-03-26T19:48:44.780Z,99166.06
2018-03-26T19:51:13.379Z,99166.44
2018-03-26T19:53:42.164Z,99165.50
2018-03-26T19:56:10.752Z,99160.29
2018-03-26T19:58:39.327Z,99158.62
2018-03-26T20:01:07.954Z,99156.25
2018-03-26T20:03:37.340Z,99153.09
2018-03-26T20:06:05.928Z,99156.67
2018-03-26T20:08:35.317Z,99148.08
2018-03-26T20:11:03.950Z,99154.92
2018-03-26T20:13:32.521Z,99153.28
2018-03-26T20:16:01.257Z,99163.86
2018-03-26T20:18:29.836Z,99166.99
2018-03-26T20:20:58.408Z,99165.02
2018-03-26T20:23:27.345Z,99150.53
2018-03-26T20:25:57.430Z,99154.50
2018-03-26T20:28:26.013Z,99147.88
2018-03-26T20:30:54.785Z,99143.87
2018-03-26T20:33:23.353Z,99141.45
2018-03-26T20:35:51.932Z,99138.49
2018-03-26T20:38:20.958Z,99134.88
2018-03-26T20:40:49.513Z,99130.16
2018-03-26T20:43:18.085Z,99128.25
2018-03-26T20:45:46.710Z,99134.49
2018-03-26T20:48:15.278Z,99128.52
2018-03-26T20:50:43.844Z,99123.50
2018-03-26T20:53:12.473Z,99120.49
2018-03-26T20:55:41.045Z,99119.01
2018-03-26T20:58:09.612Z,99117.48
2018-03-26T21:00:38.415Z,99113.30
2018-03-26T21:03:07.001Z,99110.30
2018-03-26T21:05:35.568Z,99109.63
2018-03-26T21:08:04.240Z,99110.70
2018-03-26T21:10:33.544Z,99101.08
2018-03-26T21:13:02.128Z,99109.57
2018-03-26T21:15:30.896Z,99109.34
2018-03-26T21:17:59.464Z,99109.19
2018-03-26T21:20:28.801Z,99105.88
2018-03-26T21:22:57.423Z,99107.39
2018-03-26T21:25:25.996Z,99100.31
2018-03-26T21:27:54.564Z,99101.17
2018-03-26T21:30:23.188Z,99099.39
2018-03-26T21:32:51.757Z,99106.00
2018-03-26T21:35:20.328Z,99102.89
2018-03-26T21:37:48.941Z,99109.08
2018-03-26T21:40:17.517Z,99109.05
2018-03-26T21:42:46.084Z,99105.50
2018-03-26T21:45:14.801Z,99101.66
2018-03-26T21:47:44.138Z,99101.79
2018-03-26T21:50:12.748Z,99100.75
2018-03-26T21:52:41.368Z,99100.11
2018-03-26T21:55:09.934Z,99098.79
2018-03-26T21:57:38.508Z,99103.27
2018-03-26T22:00:21.214Z,99105.08
2018-03-26T22:02:49.829Z,99104.96
2018-03-26T22:05:19.926Z,99099.65
2018-03-26T22:07:48.808Z,99104.80
2018-03-26T22:10:17.384Z,99108.44
2018-03-26T22:12:45.974Z,99113.53
2018-03-26T22:15:14.693Z,99118.81
2018-03-26T22:17:43.252Z,99123.38
2018-03-26T22:20:11.834Z,99118.09
2018-03-26T22:22:40.532Z,99120.39
2018-03-26T22:25:09.144Z,99127.98
2018-03-26T22:27:38.476Z,99117.63
2018-03-26T22:30:07.497Z,99115.09
2018-03-26T22:32:36.060Z,99117.98
2018-03-26T22:35:04.637Z,99121.69
2018-03-26T22:37:33.646Z,99121.88
2018-03-26T22:40:02.294Z,99128.05
2018-03-26T22:42:30.856Z,99125.75
2018-03-26T22:45:00.236Z,99121.69
2018-03-26T22:47:28.807Z,99129.95
2018-03-26T22:49:57.368Z,99126.59
2018-03-26T22:52:26.121Z,99124.89
2018-03-26T22:54:55.452Z,99125.40
2018-03-26T22:57:24.012Z,99123.95
2018-03-26T22:59:52.642Z,99128.41
2018-03-26T23:02:21.229Z,99124.63
2018-03-26T23:04:49.793Z,99124.44
2018-03-26T23:07:18.400Z,99130.63
2018-03-26T23:09:46.984Z,99129.98
2018-03-26T23:12:16.320Z,99129.27
2018-03-26T23:14:45.692Z,99128.47
2018-03-26T23:17:14.272Z,99134.11
2018-03-26T23:19:42.862Z,99133.34
2018-03-26T23:22:11.581Z,99126.92
2018-03-26T23:24:40.908Z,99125.40
2018-03-26T23:27:09.480Z,99124.66
2018-03-26T23:29:38.396Z,99135.08
2018-03-26T23:32:06.952Z,99136.24
2018-03-26T23:34:35.513Z,99134.20
2018-03-26T23:37:05.185Z,99141.66
2018-03-26T23:39:33.748Z,99136.04
2018-03-26T23:42:02.306Z,99134.36
2018-03-26T23:44:31.745Z,99137.27
2018-03-26T23:47:00.304Z,99127.28
2018-03-26T23:49:28.862Z,99126.88
2018-03-26T23:51:58.341Z,99124.59
2018-03-26T23:54:27.710Z,99128.17
2018-03-26T23:56:56.280Z,99135.26
2018-03-26T23:59:25.165Z,99129.48
